createdAt,value
2018-04-19T00:00:21.820Z,90.20
2018-04-19T00:02:49.316Z,89.60
2018-04-19T00:05:16.776Z,89.60
2018-04-19T00:07:44.225Z,89.20
2018-04-19T00:10:11.700Z,89.10
2018-04-19T00:12:39.167Z,90.10
2018-04-19T00:15:06.609Z,90.40
2018-04-19T00:17:34.861Z,88.70
2018-04-19T00:20:02.318Z,88.90
2018-04-19T00:22:29.775Z,88.00
2018-04-19T00:24:57.232Z,88.00
2018-04-19T00:27:25.060Z,86.50
2018-04-19T00:29:52.519Z,86.40
2018-04-19T00:32:19.981Z,86.30
2018-04-19T00:34:47.437Z,85.40
2018-04-19T00:37:14.891Z,86.60
2018-04-19T00:39:42.356Z,85.50
2018-04-19T00:42:09.860Z,84.90
2018-04-19T00:44:37.320Z,84.20
2018-04-19T00:47:04.772Z,84.10
2018-04-19T00:49:32.237Z,83.50
2018-04-19T00:51:59.686Z,82.40
2018-04-19T00:54:27.936Z,83.70
2018-04-19T00:56:55.404Z,83.60
2018-04-19T00:59:22.849Z,83.50
2018-04-19T01:01:50.339Z,83.60
2018-04-19T01:04:17.787Z,82.30
2018-04-19T01:06:45.380Z,82.40
2018-04-19T01:09:12.828Z,82.00
2018-04-19T01:11:40.278Z,80.90
2018-04-19T01:14:07.737Z,81.70
2018-04-19T01:16:35.982Z,82.50
2018-04-19T01:19:03.517Z,82.50
2018-04-19T01:21:30.977Z,82.50
2018-04-19T01:23:58.793Z,81.60
2018-04-19T01:26:26.266Z,82.40
2018-04-19T01:28:53.710Z,82.40
2018-04-19T01:31:21.204Z,82.10
2018-04-19T01:33:48.659Z,82.20
2018-04-19T01:36:24.868Z,83.00
2018-04-19T01:38:52.325Z,84.80
2018-04-19T01:41:19.880Z,85.00
2018-04-19T01:43:47.328Z,86.00
2018-04-19T01:46:14.830Z,86.30
2018-04-19T01:48:42.288Z,87.70
2018-04-19T01:51:09.736Z,87.90
2018-04-19T01:53:37.202Z,88.80
2018-04-19T01:56:04.717Z,88.20
2018-04-19T01:58:32.245Z,89.90
2018-04-19T02:01:00.448Z,90.00
2018-04-19T02:03:28.312Z,90.00
2018-04-19T02:05:55.817Z,90.30
2018-04-19T02:08:23.296Z,90.30
2018-04-19T02:10:50.766Z,90.30
2018-04-19T02:13:18.217Z,89.60
2018-04-19T02:15:45.677Z,90.40
2018-04-19T02:18:13.123Z,90.00
2018-04-19T02:20:41.453Z,90.50
2018-04-19T02:23:08.903Z,90.50
2018-04-19T02:25:36.350Z,91.00
2018-04-19T02:28:03.839Z,91.30
2018-04-19T02:30:31.280Z,90.80
2018-04-19T02:32:59.505Z,91.20
2018-04-19T02:35:27.002Z,91.20
2018-04-19T02:37:54.467Z,91.60
2018-04-19T02:40:21.956Z,91.40
2018-04-19T02:42:49.516Z,92.20
2018-04-19T02:45:16.984Z,92.00
2018-04-19T02:47:44.429Z,92.00
2018-04-19T02:50:11.920Z,92.10
2018-04-19T02:52:39.372Z,92.20
2018-04-19T02:55:06.840Z,92.50
2018-04-19T02:57:34.340Z,92.50
2018-04-19T03:00:01.784Z,92.60
2018-04-19T03:02:29.257Z,93.00
2018-04-19T03:04:56.712Z,93.40
2018-04-19T03:07:24.177Z,93.20
2018-04-19T03:09:51.624Z,93.40
2018-04-19T03:12:19.873Z,93.80
2018-04-19T03:14:47.332Z,93.80
2018-04-19T03:17:14.780Z,93.70
2018-04-19T03:19:42.248Z,94.00
2018-04-19T03:22:09.740Z,94.10
2018-04-19T03:24:37.204Z,94.50
2018-04-19T03:27:04.648Z,94.40
2018-04-19T03:29:32.222Z,94.40
2018-04-19T03:31:59.733Z,94.40
2018-04-19T03:34:27.297Z,94.40
2018-04-19T03:36:54.746Z,94.40
2018-04-19T03:39:22.196Z,94.30
2018-04-19T03:41:49.656Z,94.30
2018-04-19T03:44:17.864Z,94.90
2018-04-19T03:46:45.364Z,94.90
2018-04-19T03:49:12.822Z,94.70
2018-04-19T03:51:40.348Z,94.80
2018-04-19T03:54:08.593Z,94.90
2018-04-19T03:56:36.041Z,94.90
2018-04-19T03:59:03.504Z,95.00
2018-04-19T04:01:31.008Z,95.00
2018-04-19T04:03:58.475Z,95.00
2018-04-19T04:06:26.013Z,95.00
2018-04-19T04:08:54.278Z,95.00
2018-04-19T04:11:21.775Z,95.00
2018-04-19T04:13:49.224Z,95.10
2018-04-19T04:16:29.429Z,96.10
2018-04-19T04:19:08.900Z,95.80
2018-04-19T04:21:48.196Z,95.60
2018-04-19T04:24:16.501Z,95.70
2018-04-19T04:26:43.967Z,95.70
2018-04-19T04:29:12.192Z,96.00
2018-04-19T04:31:39.664Z,96.00
2018-04-19T04:34:07.115Z,96.10
2018-04-19T04:36:34.565Z,96.30
2018-04-19T04:39:02.024Z,96.00
2018-04-19T04:41:30.245Z,95.80
2018-04-19T04:43:57.811Z,95.80
2018-04-19T04:46:25.262Z,95.90
2018-04-19T04:48:52.733Z,96.20
2018-04-19T04:51:20.245Z,96.30
2018-04-19T04:53:47.704Z,96.10
2018-04-19T04:56:15.170Z,96.10
2018-04-19T04:58:42.656Z,96.00
2018-04-19T05:01:10.125Z,95.90
2018-04-19T05:03:37.598Z,95.80
2018-04-19T05:06:05.072Z,95.80
2018-04-19T05:08:32.560Z,95.70
2018-04-19T05:11:00.007Z,96.00
2018-04-19T05:13:27.464Z,95.80
2018-04-19T05:15:54.917Z,96.10
2018-04-19T05:18:22.384Z,96.10
2018-04-19T05:20:49.836Z,95.80
2018-04-19T05:23:17.320Z,95.80
2018-04-19T05:25:44.768Z,95.70
2018-04-19T05:28:13.014Z,96.30
2018-04-19T05:30:40.482Z,96.20
2018-04-19T05:33:07.944Z,96.20
2018-04-19T05:35:35.424Z,96.10
2018-04-19T07:52:39.048Z,40.60
2018-04-19T07:55:06.593Z,40.30
2018-04-19T07:57:34.037Z,41.80
2018-04-19T08:00:01.498Z,40.30
2018-04-19T08:02:28.995Z,39.80
2018-04-19T08:04:56.463Z,39.10
2018-04-19T08:07:23.940Z,39.10
2018-04-19T08:09:51.417Z,38.20
2018-04-19T08:12:18.876Z,37.80
2018-04-19T08:14:46.331Z,36.30
2018-04-19T08:17:13.846Z,36.60
2018-04-19T08:19:41.385Z,37.00
2018-04-19T08:22:08.931Z,35.60
2018-04-19T08:24:36.393Z,36.40
2018-04-19T08:27:04.608Z,35.30
2018-04-19T08:29:32.152Z,35.30
2018-04-19T08:32:00.356Z,35.20
2018-04-19T08:34:27.925Z,35.20
2018-04-19T08:36:55.429Z,36.00
2018-04-19T08:39:22.999Z,35.00
2018-04-19T08:41:50.450Z,35.20
2018-04-19T08:44:17.939Z,33.80
2018-04-19T08:46:45.513Z,33.40
2018-04-19T08:49:12.964Z,33.60
2018-04-19T08:51:40.452Z,33.40
2018-04-19T08:54:07.924Z,33.30
2018-04-19T08:56:35.441Z,30.40
2018-04-19T08:59:03.646Z,31.40
2018-04-19T09:01:31.145Z,31.40
2018-04-19T09:03:58.589Z,31.70
2018-04-19T09:06:26.049Z,31.10
2018-04-19T09:08:53.517Z,31.40
2018-04-19T09:11:21.026Z,30.30
2018-04-19T09:13:48.496Z,30.90
2018-04-19T09:16:15.952Z,30.10
2018-04-19T09:18:43.424Z,29.60
2018-04-19T09:21:10.913Z,29.10
2018-04-19T09:23:38.380Z,29.20
2018-04-19T09:42:57.577Z,27.00
2018-04-19T09:45:25.124Z,27.80
2018-04-19T09:47:52.702Z,28.50
2018-04-19T09:50:20.145Z,27.50
2018-04-19T09:52:47.592Z,27.80
2018-04-19T09:55:15.065Z,28.10
2018-04-19T17:57:50.929Z,33.00
2018-04-19T18:00:18.400Z,33.70
2018-04-19T18:02:45.848Z,34.90
2018-04-19T18:05:13.324Z,35.10
2018-04-19T18:07:40.765Z,36.00
2018-04-19T18:10:08.229Z,36.50
2018-04-19T18:12:36.458Z,37.70
2018-04-19T18:15:03.915Z,37.70
2018-04-19T18:17:31.370Z,38.10
2018-04-19T18:19:58.876Z,39.00
2018-04-19T18:22:26.340Z,40.60
2018-04-19T18:24:53.817Z,40.50
2018-04-19T18:27:21.284Z,44.30
2018-04-19T18:29:48.764Z,45.00
2018-04-19T18:32:16.225Z,47.80
2018-04-19T18:34:43.688Z,49.40
2018-04-19T18:37:11.152Z,52.00
2018-04-19T18:39:38.601Z,53.20
2018-04-19T18:42:06.112Z,55.10
2018-04-19T18:44:33.569Z,56.70
2018-04-19T18:47:01.059Z,57.50
2018-04-19T18:49:28.528Z,58.10
2018-04-19T18:51:56.103Z,60.10
2018-04-19T18:54:23.552Z,61.70
2018-04-19T18:56:51.025Z,62.40
2018-04-19T18:59:18.504Z,63.40
2018-04-19T19:01:46.080Z,63.20
2018-04-19T19:04:13.536Z,63.90
2018-04-19T19:06:41.003Z,63.30
2018-04-19T19:09:08.512Z,63.60
2018-04-19T19:11:35.904Z,65.00
2018-04-19T19:14:04.148Z,66.60
2018-04-19T19:16:31.601Z,66.50
2018-04-19T19:19:11.151Z,66.90
2018-04-19T19:21:38.603Z,66.80
2018-04-19T19:24:06.069Z,66.70
2018-04-19T19:26:33.524Z,67.30
2018-04-19T19:29:01.769Z,68.40
2018-04-19T19:31:29.217Z,68.30
2018-04-19T19:33:56.687Z,69.40
2018-04-19T19:36:24.137Z,68.00
2018-04-19T19:38:51.585Z,68.40
2018-04-19T19:41:19.815Z,63.10
2018-04-19T19:43:47.269Z,63.00
2018-04-19T19:46:14.736Z,60.50
2018-04-19T19:48:42.197Z,59.60
2018-04-19T19:51:10.598Z,62.80
2018-04-19T19:53:38.854Z,58.70
2018-04-19T19:56:07.080Z,58.50
2018-04-19T19:58:34.580Z,58.20
2018-04-19T20:01:02.060Z,55.90
2018-04-19T20:03:29.524Z,55.40
2018-04-19T20:05:57.043Z,54.60
2018-04-19T20:08:25.372Z,54.90
2018-04-19T20:10:52.939Z,54.90
2018-04-19T20:13:20.457Z,55.10
2018-04-19T20:15:48.949Z,59.20
2018-04-19T20:18:16.481Z,58.70
2018-04-19T20:20:44.037Z,55.20
2018-04-19T20:23:11.570Z,57.60
2018-04-19T20:25:39.194Z,56.50
2018-04-19T20:28:06.954Z,54.60
2018-04-19T20:30:34.767Z,57.70
2018-04-19T20:33:02.361Z,56.20
2018-04-19T20:35:30.204Z,55.20
2018-04-19T20:37:57.992Z,54.80
2018-04-19T20:40:26.011Z,54.20
2018-04-19T20:42:53.997Z,55.20
2018-04-19T20:45:22.773Z,54.70
2018-04-19T20:47:51.129Z,55.30
2018-04-19T20:50:19.408Z,56.00
2018-04-19T20:52:46.921Z,56.00
2018-04-19T20:55:14.457Z,57.70
2018-04-19T20:57:42.783Z,57.10
2018-04-19T21:00:10.308Z,57.00
2018-04-19T21:02:38.809Z,57.50
2018-04-19T21:05:07.088Z,61.50
2018-04-19T21:07:34.750Z,61.40
2018-04-19T21:10:03.126Z,61.30
2018-04-19T21:12:30.703Z,61.40
2018-04-19T21:14:58.289Z,62.40
2018-04-19T21:17:25.879Z,62.40
2018-04-19T21:19:54.520Z,63.90
2018-04-19T21:22:22.104Z,63.90
2018-04-19T21:24:51.108Z,63.70
2018-04-19T21:27:18.604Z,63.70
2018-04-19T21:29:46.069Z,63.30
2018-04-19T21:32:13.641Z,61.70
2018-04-19T21:34:41.092Z,61.60
2018-04-19T21:37:08.564Z,62.90
2018-04-19T21:39:36.115Z,62.30
2018-04-19T21:42:04.374Z,64.20
2018-04-19T21:44:31.785Z,64.20
2018-04-19T21:46:59.256Z,64.10
2018-04-19T21:49:26.708Z,66.10
2018-04-19T21:51:54.164Z,67.80
2018-04-19T21:54:22.420Z,69.80
2018-04-19T21:56:49.876Z,70.30
2018-04-19T21:59:17.349Z,71.10
2018-04-19T22:01:44.839Z,71.40
2018-04-19T22:04:12.265Z,71.30
2018-04-19T22:06:39.758Z,73.80
2018-04-19T22:09:07.224Z,74.00
2018-04-19T22:11:34.695Z,76.90
2018-04-19T22:14:02.172Z,75.70
2018-04-19T22:16:29.649Z,76.60
2018-04-19T22:18:57.215Z,78.20
2018-04-19T22:21:24.672Z,78.60
2018-04-19T22:23:52.128Z,78.80
2018-04-19T22:26:19.596Z,79.80
2018-04-19T22:28:47.044Z,79.10
2018-04-19T22:31:14.516Z,79.90
2018-04-19T22:33:42.032Z,81.50
2018-04-19T22:36:09.480Z,81.70
2018-04-19T22:38:36.948Z,82.60
2018-04-19T22:41:04.401Z,82.60
2018-04-19T22:43:31.864Z,82.50
2018-04-19T22:46:00.085Z,82.50
2018-04-19T22:48:27.540Z,82.50
2018-04-19T22:50:55.101Z,81.90
2018-04-19T22:53:23.320Z,84.90
2018-04-19T22:55:50.800Z,84.80
2018-04-19T22:58:18.264Z,86.20
2018-04-19T23:00:45.724Z,85.30
2018-04-19T23:03:13.177Z,85.10
2018-04-19T23:05:40.684Z,85.20
2018-04-19T23:08:08.140Z,86.00
2018-04-19T23:10:35.618Z,85.40
2018-04-19T23:13:03.084Z,86.00
2018-04-19T23:15:30.548Z,85.80
2018-04-19T23:17:58.000Z,86.10
2018-04-19T23:20:25.460Z,86.60
2018-04-19T23:22:52.968Z,87.30
2018-04-19T23:25:20.532Z,86.90
2018-04-19T23:27:48.033Z,88.20
2018-04-19T23:30:15.488Z,88.40
2018-04-19T23:32:42.945Z,88.60
2018-04-19T23:35:10.412Z,89.90
2018-04-19T23:37:37.935Z,90.40
2018-04-19T23:40:05.340Z,90.30
2018-04-19T23:42:32.812Z,90.20
2018-04-19T23:45:00.297Z,90.10
2018-04-19T23:47:27.757Z,90.10
2018-04-19T23:49:55.304Z,90.20
2018-04-19T23:52:22.758Z,90.20
2018-04-19T23:54:50.972Z,90.60
2018-04-19T23:57:18.440Z,90.60
2018-04-19T23:59:45.893Z,90.70
